Time;durP1;ratioP1;P1;durP2;ratioP2;P2;SDS_P1;SDS_P2;PMS_P1;PMS_P2;Temp;Humidity;BMP_temperature;BMP_pressure;BME280_temperature;BME280_humidity;BME280_pressure;Samples;Min_cycle;Max_cycle;Signal;HPM_P1;HPM_P2
2022/05/12 00:00:26;;;;;;;;;;;12.20;71.20;;;;;;5087628;28;19912;-76
2022/05/12 00:02:51;;;;;;;;;;;12.10;71.30;;;;;;5069345;28;20412;-73
2022/05/12 00:05:17;;;;;;;;;;;12.10;71.50;;;;;;5087592;28;19908;-74
2022/05/12 00:07:43;;;;;;;;;;;12.10;71.40;;;;;;5072449;28;19920;-73
2022/05/12 00:10:10;;;;;;;;;;;12.00;71.40;;;;;;5091169;28;19916;-74
2022/05/12 00:12:36;;;;;;;;;;;11.90;71.20;;;;;;5072802;28;20018;-74
2022/05/12 00:15:06;;;;;;;;;;;11.90;71.40;;;;;;5072830;28;19908;-72
2022/05/12 00:17:32;;;;;;;;;;;11.80;71.60;;;;;;5072379;28;19909;-75
2022/05/12 00:19:58;;;;;;;;;;;11.70;71.80;;;;;;5072846;28;19919;-72
2022/05/12 00:22:23;;;;;;;;;;;11.60;71.70;;;;;;5072830;28;19918;-74
2022/05/12 00:24:49;;;;;;;;;;;11.50;71.80;;;;;;5090901;28;19908;-75
2022/05/12 00:27:14;;;;;;;;;;;11.40;71.80;;;;;;5056000;28;19955;-73
2022/05/12 00:29:40;;;;;;;;;;;11.40;72.00;;;;;;5072594;28;19912;-75
2022/05/12 00:32:05;;;;;;;;;;;11.30;72.00;;;;;;5090905;28;19951;-74
2022/05/12 00:34:31;;;;;;;;;;;11.30;72.30;;;;;;5090678;28;19912;-74
2022/05/12 00:36:57;;;;;;;;;;;11.30;72.40;;;;;;5072602;28;20002;-73
2022/05/12 00:39:22;;;;;;;;;;;11.20;72.40;;;;;;5072529;28;20539;-73
2022/05/12 00:41:48;;;;;;;;;;;11.20;72.50;;;;;;5090384;28;19995;-74
2022/05/12 00:44:15;;;;;;;;;;;11.10;72.50;;;;;;5072434;28;19912;-74
2022/05/12 00:46:41;;;;;;;;;;;11.10;73.20;;;;;;5090427;28;19927;-74
2022/05/12 00:49:14;;;;;;;;;;;11.00;72.70;;;;;;5090469;28;19912;-74
2022/05/12 00:51:42;;;;;;;;;;;11.00;72.70;;;;;;5090489;28;19927;-74
2022/05/12 00:54:15;;;;;;;;;;;10.90;72.80;;;;;;5090248;28;19962;-74
2022/05/12 00:56:41;;;;;;;;;;;10.90;72.90;;;;;;5090336;28;19995;-75
2022/05/12 00:59:09;;;;;;;;;;;10.80;73.10;;;;;;5072074;28;20006;-75
2022/05/12 01:01:36;;;;;;;;;;;10.80;73.20;;;;;;5093216;28;20271;-74
2022/05/12 01:04:02;;;;;;;;;;;10.70;73.30;;;;;;5072546;28;20334;-73
2022/05/12 01:06:28;;;;;;;;;;;10.70;73.70;;;;;;5090295;28;19958;-73
2022/05/12 01:08:53;;;;;;;;;;;10.60;73.70;;;;;;5055224;28;19916;-75
2022/05/12 01:11:19;;;;;;;;;;;10.60;73.80;;;;;;5090216;28;20015;-74
2022/05/12 01:13:49;;;;;;;;;;;10.50;73.70;;;;;;5089986;28;19925;-75
2022/05/12 01:16:31;;;;;;;;;;;10.50;74.10;;;;;;5071825;28;19908;-75
2022/05/12 01:18:57;;;;;;;;;;;10.40;74.20;;;;;;5089798;28;19908;-74
2022/05/12 01:21:23;;;;;;;;;;;10.40;74.30;;;;;;5089922;28;19918;-74
2022/05/12 01:23:49;;;;;;;;;;;10.40;74.40;;;;;;5055104;28;20268;-75
2022/05/12 01:26:15;;;;;;;;;;;10.30;74.50;;;;;;5089735;28;20007;-74
2022/05/12 01:28:41;;;;;;;;;;;10.30;74.70;;;;;;5089682;28;20003;-75
2022/05/12 01:31:07;;;;;;;;;;;10.30;75.00;;;;;;5090122;28;20282;-74
2022/05/12 01:33:33;;;;;;;;;;;10.20;74.80;;;;;;5071371;28;19912;-74
2022/05/12 01:35:58;;;;;;;;;;;10.20;75.00;;;;;;5071447;28;20359;-73
2022/05/12 01:38:24;;;;;;;;;;;10.20;74.90;;;;;;5089606;28;19919;-74
2022/05/12 01:40:50;;;;;;;;;;;10.20;75.00;;;;;;5089878;28;20034;-73
2022/05/12 01:43:16;;;;;;;;;;;10.20;75.10;;;;;;5089355;28;19912;-74
2022/05/12 01:45:42;;;;;;;;;;;10.10;75.10;;;;;;5071365;28;19919;-74
2022/05/12 01:48:09;;;;;;;;;;;10.10;75.20;;;;;;5089446;28;19951;-73
2022/05/12 01:50:35;;;;;;;;;;;10.10;75.40;;;;;;5089461;28;20335;-75
2022/05/12 01:53:00;;;;;;;;;;;10.10;75.40;;;;;;5089096;28;19951;-75
2022/05/12 01:55:27;;;;;;;;;;;10.10;75.60;;;;;;5089121;28;19957;-75
2022/05/12 01:57:53;;;;;;;;;;;10.00;75.60;;;;;;5089142;28;19908;-75
2022/05/12 02:00:21;;;;;;;;;;;10.00;75.70;;;;;;5089096;28;19919;-75
2022/05/12 02:02:47;;;;;;;;;;;10.00;75.70;;;;;;5070988;28;20373;-73
2022/05/12 02:05:13;;;;;;;;;;;10.00;75.60;;;;;;5088991;28;19947;-74
2022/05/12 02:07:39;;;;;;;;;;;10.00;75.70;;;;;;5088949;28;19979;-74
2022/05/12 02:10:06;;;;;;;;;;;10.00;75.60;;;;;;5088965;28;19916;-73
2022/05/12 02:12:32;;;;;;;;;;;9.90;75.50;;;;;;5074619;28;19939;-73
2022/05/12 02:14:57;;;;;;;;;;;9.90;75.40;;;;;;5070493;28;20202;-75
2022/05/12 02:17:23;;;;;;;;;;;9.80;75.40;;;;;;5070708;28;19921;-72
2022/05/12 02:19:48;;;;;;;;;;;9.80;75.40;;;;;;5088768;28;19916;-74
2022/05/12 02:22:14;;;;;;;;;;;9.70;75.50;;;;;;5088753;28;19935;-74
2022/05/12 02:24:39;;;;;;;;;;;9.70;75.50;;;;;;5070409;28;19908;-75
2022/05/12 02:27:06;;;;;;;;;;;9.60;75.70;;;;;;5088581;28;19951;-75
2022/05/12 02:29:31;;;;;;;;;;;9.60;75.80;;;;;;5088023;28;19916;-73
2022/05/12 02:31:57;;;;;;;;;;;9.60;75.80;;;;;;5070441;28;19915;-74
2022/05/12 02:34:22;;;;;;;;;;;9.50;75.70;;;;;;5088537;28;19923;-74
2022/05/12 02:36:59;;;;;;;;;;;9.50;75.90;;;;;;5053884;28;19962;-73
2022/05/12 02:39:27;;;;;;;;;;;9.50;75.90;;;;;;5072195;28;20002;-73
2022/05/12 02:41:53;;;;;;;;;;;9.40;76.00;;;;;;5070316;28;19954;-75
2022/05/12 02:44:18;;;;;;;;;;;9.40;76.10;;;;;;5088329;28;19911;-72
2022/05/12 02:46:44;;;;;;;;;;;9.40;76.40;;;;;;5070037;28;19920;-74
2022/05/12 02:49:12;;;;;;;;;;;9.30;76.40;;;;;;5069796;28;20226;-74
2022/05/12 02:51:37;;;;;;;;;;;9.30;76.40;;;;;;5088337;28;19923;-74
2022/05/12 02:54:03;;;;;;;;;;;9.30;76.40;;;;;;5088166;28;19916;-74
2022/05/12 02:56:28;;;;;;;;;;;9.30;76.50;;;;;;5088284;28;19950;-73
2022/05/12 02:58:54;;;;;;;;;;;9.30;76.60;;;;;;5070116;28;19919;-73
2022/05/12 03:01:20;;;;;;;;;;;9.30;76.80;;;;;;5070161;28;19999;-73
2022/05/12 03:03:45;;;;;;;;;;;9.30;76.70;;;;;;5053362;28;19912;-73
2022/05/12 03:06:11;;;;;;;;;;;9.40;76.70;;;;;;5088148;28;19946;-73
2022/05/12 03:08:37;;;;;;;;;;;9.40;77.40;;;;;;5088158;28;20007;-74
2022/05/12 03:11:04;;;;;;;;;;;9.40;77.20;;;;;;5069930;28;19912;-73
2022/05/12 03:13:31;;;;;;;;;;;9.40;77.30;;;;;;5087996;28;19916;-74
2022/05/12 03:15:57;;;;;;;;;;;9.40;77.50;;;;;;5088171;28;19908;-75
2022/05/12 03:18:24;;;;;;;;;;;9.30;77.50;;;;;;5087956;28;19999;-74
2022/05/12 03:20:50;;;;;;;;;;;9.30;77.50;;;;;;5088042;28;19908;-75
2022/05/12 03:23:17;;;;;;;;;;;9.30;77.80;;;;;;5087914;28;20377;-74
2022/05/12 03:25:45;;;;;;;;;;;9.20;77.70;;;;;;5069827;28;19916;-74
2022/05/12 03:28:11;;;;;;;;;;;9.20;77.90;;;;;;5087806;28;20285;-74
2022/05/12 03:30:36;;;;;;;;;;;9.20;77.90;;;;;;5087990;28;19912;-73
2022/05/12 03:33:02;;;;;;;;;;;9.10;78.00;;;;;;5087891;28;19912;-72
2022/05/12 03:35:28;;;;;;;;;;;9.20;78.30;;;;;;5087822;28;19934;-73
2022/05/12 03:37:54;;;;;;;;;;;9.20;78.30;;;;;;5069996;28;19916;-74
2022/05/12 03:40:20;;;;;;;;;;;9.20;78.30;;;;;;5070758;28;19916;-74
2022/05/12 03:42:46;;;;;;;;;;;9.20;78.60;;;;;;5091762;28;19908;-74
2022/05/12 03:45:12;;;;;;;;;;;9.20;78.50;;;;;;5056900;28;20006;-73
2022/05/12 03:47:38;;;;;;;;;;;9.20;78.50;;;;;;5091503;28;20015;-75
2022/05/12 03:50:11;;;;;;;;;;;9.20;78.80;;;;;;5091672;28;19919;-74
2022/05/12 03:52:37;;;;;;;;;;;9.20;78.80;;;;;;5091484;28;19908;-74
2022/05/12 03:55:04;;;;;;;;;;;9.20;79.00;;;;;;5091629;28;19981;-74
2022/05/12 03:57:30;;;;;;;;;;;9.20;79.60;;;;;;5091878;28;19908;-75
2022/05/12 03:59:56;;;;;;;;;;;9.20;79.30;;;;;;5073105;28;19912;-74
2022/05/12 04:02:21;;;;;;;;;;;9.10;79.30;;;;;;5091405;28;20374;-74
2022/05/12 04:04:48;;;;;;;;;;;9.10;79.40;;;;;;5091285;28;19955;-75
2022/05/12 04:07:14;;;;;;;;;;;9.10;79.60;;;;;;5091426;28;19926;-75
2022/05/12 04:09:40;;;;;;;;;;;9.10;79.80;;;;;;5091540;28;20002;-74
2022/05/12 04:12:09;;;;;;;;;;;9.00;79.80;;;;;;5091320;28;20437;-73
2022/05/12 04:14:35;;;;;;;;;;;9.00;79.90;;;;;;5056705;28;19919;-75
2022/05/12 04:17:00;;;;;;;;;;;9.00;80.00;;;;;;5073088;28;20270;-73
2022/05/12 04:19:26;;;;;;;;;;;9.00;80.00;;;;;;5091093;28;19912;-73
2022/05/12 04:21:54;;;;;;;;;;;9.00;80.10;;;;;;5073054;28;19912;-74
2022/05/12 04:24:20;;;;;;;;;;;9.00;80.20;;;;;;5072636;28;20395;-75
2022/05/12 04:26:46;;;;;;;;;;;9.00;80.20;;;;;;5091342;28;19912;-76
2022/05/12 04:29:12;;;;;;;;;;;9.00;80.30;;;;;;5072752;28;19916;-73
2022/05/12 04:31:38;;;;;;;;;;;8.90;80.50;;;;;;5072720;28;19912;-76
2022/05/12 04:36:48;;;;;;;;;;;8.90;80.60;;;;;;5091179;28;19937;-73
2022/05/12 04:39:14;;;;;;;;;;;8.90;80.90;;;;;;5090725;28;19908;-75
2022/05/12 04:41:39;;;;;;;;;;;8.90;80.90;;;;;;5090621;28;20024;-72
2022/05/12 04:44:06;;;;;;;;;;;9.00;81.20;;;;;;5055866;28;19912;-74
2022/05/12 04:46:34;;;;;;;;;;;9.10;81.30;;;;;;5090316;28;20011;-74
2022/05/12 04:49:00;;;;;;;;;;;9.10;81.40;;;;;;5090331;28;19923;-75
2022/05/12 04:51:26;;;;;;;;;;;9.20;81.40;;;;;;5090079;28;19915;-76
2022/05/12 04:53:51;;;;;;;;;;;9.30;81.40;;;;;;5071694;28;20003;-74
2022/05/12 04:56:17;;;;;;;;;;;9.40;81.70;;;;;;5090220;28;20036;-73
2022/05/12 04:58:43;;;;;;;;;;;9.50;81.00;;;;;;5072311;28;19935;-75
2022/05/12 05:01:08;;;;;;;;;;;9.60;80.90;;;;;;5090130;28;19944;-71
2022/05/12 05:03:34;;;;;;;;;;;9.60;80.90;;;;;;5090161;28;20415;-72
2022/05/12 05:05:59;;;;;;;;;;;9.50;80.90;;;;;;5090133;28;19916;-74
2022/05/12 05:08:25;;;;;;;;;;;9.50;81.00;;;;;;5055422;28;19946;-74
2022/05/12 05:10:53;;;;;;;;;;;9.60;81.10;;;;;;5090101;28;19912;-73
2022/05/12 05:13:19;;;;;;;;;;;9.60;81.20;;;;;;5072090;28;20362;-76
2022/05/12 05:15:44;;;;;;;;;;;9.60;81.30;;;;;;5089564;28;20010;-73
2022/05/12 05:18:11;;;;;;;;;;;9.70;81.40;;;;;;5089883;28;20298;-75
2022/05/12 05:20:36;;;;;;;;;;;9.70;81.30;;;;;;5089888;28;19943;-73
2022/05/12 05:23:02;;;;;;;;;;;9.70;81.40;;;;;;5054901;28;20319;-76
2022/05/12 05:25:27;;;;;;;;;;;9.80;81.50;;;;;;5089807;28;19915;-75
2022/05/12 05:27:54;;;;;;;;;;;9.80;81.60;;;;;;5071428;28;20011;-72
2022/05/12 05:30:22;;;;;;;;;;;9.90;81.70;;;;;;5071712;28;19916;-73
2022/05/12 05:32:47;;;;;;;;;;;10.00;82.00;;;;;;5089294;28;19951;-74
2022/05/12 05:35:13;;;;;;;;;;;10.10;82.10;;;;;;5071385;28;19946;-74
2022/05/12 05:37:40;;;;;;;;;;;10.20;82.10;;;;;;5089563;28;20437;-72
2022/05/12 05:40:06;;;;;;;;;;;10.30;81.90;;;;;;5074418;28;19916;-73
2022/05/12 05:42:31;;;;;;;;;;;10.40;81.80;;;;;;5090471;28;20370;-73
2022/05/12 05:44:57;;;;;;;;;;;10.50;81.80;;;;;;5070079;28;19919;-74
2022/05/12 05:47:23;;;;;;;;;;;10.50;81.60;;;;;;5070894;28;20620;-73
2022/05/12 05:49:49;;;;;;;;;;;10.50;81.60;;;;;;5089281;28;19908;-74
2022/05/12 05:54:59;;;;;;;;;;;10.50;81.60;;;;;;5089359;28;19915;-72
2022/05/12 05:57:26;;;;;;;;;;;10.50;81.70;;;;;;5070695;28;20277;-74
2022/05/12 05:59:52;;;;;;;;;;;10.50;81.80;;;;;;5089222;28;19912;-74
2022/05/12 06:02:18;;;;;;;;;;;10.60;82.20;;;;;;5088982;28;19912;-72
2022/05/12 06:04:43;;;;;;;;;;;11.00;82.90;;;;;;5068494;28;19916;-61
2022/05/12 06:07:09;;;;;;;;;;;11.70;82.20;;;;;;5088338;28;20028;-74
2022/05/12 06:09:34;;;;;;;;;;;12.10;80.20;;;;;;5070772;28;19912;-76
2022/05/12 06:12:00;;;;;;;;;;;12.10;79.50;;;;;;5070419;28;19916;-73
2022/05/12 06:14:26;;;;;;;;;;;12.00;79.60;;;;;;5088586;28;19912;-75
2022/05/12 06:16:52;;;;;;;;;;;11.90;80.10;;;;;;5088465;28;19925;-75
2022/05/12 06:19:18;;;;;;;;;;;12.00;80.50;;;;;;5070009;28;20365;-75
2022/05/12 06:21:44;;;;;;;;;;;12.20;80.90;;;;;;5088441;28;19916;-76
2022/05/12 06:24:10;;;;;;;;;;;12.80;80.80;;;;;;5070316;28;19908;-75
2022/05/12 06:26:35;;;;;;;;;;;13.40;80.40;;;;;;5070250;28;19923;-76
2022/05/12 06:29:01;;;;;;;;;;;14.50;79.60;;;;;;5088339;28;20022;-75
2022/05/12 06:31:30;;;;;;;;;;;15.00;78.10;;;;;;5087923;28;19923;-77
2022/05/12 06:33:56;;;;;;;;;;;15.00;77.00;;;;;;5070002;28;19946;-75
2022/05/12 06:36:21;;;;;;;;;;;14.80;76.90;;;;;;5070007;28;20370;-77
2022/05/12 06:38:47;;;;;;;;;;;14.50;76.90;;;;;;5069655;28;19915;-74
2022/05/12 06:41:14;;;;;;;;;;;14.20;77.30;;;;;;5088147;28;19908;-75
2022/05/12 06:43:39;;;;;;;;;;;14.00;77.60;;;;;;5088077;28;19958;-73
2022/05/12 06:46:05;;;;;;;;;;;13.90;77.60;;;;;;5087968;28;19912;-73
2022/05/12 06:48:30;;;;;;;;;;;13.80;78.20;;;;;;5069765;28;19951;-74
2022/05/12 06:50:56;;;;;;;;;;;13.70;77.80;;;;;;5069441;28;19919;-75
2022/05/12 06:53:22;;;;;;;;;;;13.80;77.90;;;;;;5069287;28;20340;-75
2022/05/12 06:55:47;;;;;;;;;;;13.90;78.00;;;;;;5087717;28;19916;-75
2022/05/12 06:58:17;;;;;;;;;;;13.90;78.00;;;;;;5087689;28;20286;-75
2022/05/12 07:00:43;;;;;;;;;;;14.10;77.70;;;;;;5069769;28;19974;-74
2022/05/12 07:03:12;;;;;;;;;;;14.20;77.60;;;;;;5087858;28;20003;-74
2022/05/12 07:05:39;;;;;;;;;;;14.30;77.70;;;;;;5070385;28;20023;-74
2022/05/12 07:08:05;;;;;;;;;;;14.50;77.70;;;;;;5070090;28;19916;-73
2022/05/12 07:10:31;;;;;;;;;;;14.50;77.30;;;;;;5088319;28;19923;-74
2022/05/12 07:12:57;;;;;;;;;;;14.60;77.20;;;;;;5069581;28;19912;-73
2022/05/12 07:15:25;;;;;;;;;;;14.60;76.80;;;;;;5070502;28;19916;-73
2022/05/12 07:17:50;;;;;;;;;;;14.50;76.90;;;;;;5073960;28;19940;-74
2022/05/12 07:28:31;;;;;;;;;;;14.90;76.20;;;;;;5091651;28;19923;-74
2022/05/12 07:31:03;;;;;;;;;;;14.90;76.20;;;;;;5091156;28;19908;-76
2022/05/12 07:33:30;;;;;;;;;;;14.80;76.00;;;;;;5091177;28;20340;-74
2022/05/12 07:35:55;;;;;;;;;;;14.80;76.30;;;;;;5091312;28;20285;-73
2022/05/12 07:38:21;;;;;;;;;;;14.90;76.30;;;;;;5072926;28;19991;-76
2022/05/12 07:40:47;;;;;;;;;;;14.90;76.00;;;;;;5056373;28;19916;-76
2022/05/12 07:43:12;;;;;;;;;;;15.00;76.00;;;;;;5091199;28;20024;-73
2022/05/12 07:45:38;;;;;;;;;;;15.40;76.50;;;;;;5091163;28;20007;-73
2022/05/12 07:48:04;;;;;;;;;;;15.80;75.60;;;;;;5090895;28;19973;-74
2022/05/12 07:50:29;;;;;;;;;;;16.10;75.30;;;;;;5073078;28;19915;-74
2022/05/12 07:52:55;;;;;;;;;;;17.00;75.80;;;;;;5072357;28;19999;-76
2022/05/12 07:55:21;;;;;;;;;;;18.50;75.10;;;;;;5090442;28;19915;-74
2022/05/12 07:57:46;;;;;;;;;;;19.80;74.10;;;;;;5090468;28;19916;-75
2022/05/12 08:00:12;;;;;;;;;;;20.80;73.10;;;;;;5091376;28;20384;-77
2022/05/12 08:02:38;;;;;;;;;;;21.30;70.50;;;;;;5093214;28;19912;-77
2022/05/12 08:05:04;;;;;;;;;;;21.40;69.30;;;;;;5100623;28;20312;-72
2022/05/12 08:07:30;;;;;;;;;;;21.80;69.00;;;;;;5101180;28;19923;-75
2022/05/12 08:09:58;;;;;;;;;;;22.10;67.70;;;;;;5101846;28;19930;-75
2022/05/12 08:12:24;;;;;;;;;;;22.00;67.10;;;;;;5065728;28;19912;-71
2022/05/12 08:14:50;;;;;;;;;;;22.10;67.30;;;;;;5100084;28;20368;-72
2022/05/12 08:17:15;;;;;;;;;;;22.20;65.80;;;;;;5083582;28;19925;-73
2022/05/12 08:19:41;;;;;;;;;;;22.30;65.90;;;;;;5100220;28;19927;-75
2022/05/12 08:22:07;;;;;;;;;;;22.90;65.60;;;;;;5100720;28;19907;-65
2022/05/12 08:24:32;;;;;;;;;;;23.10;64.60;;;;;;5101330;28;19915;-75
2022/05/12 08:26:58;;;;;;;;;;;22.60;63.10;;;;;;5098746;28;19912;-75
2022/05/12 08:29:23;;;;;;;;;;;21.80;63.20;;;;;;5099767;28;19912;-74
2022/05/12 08:31:49;;;;;;;;;;;21.00;63.30;;;;;;5081989;28;19911;-74
2022/05/12 08:34:14;;;;;;;;;;;21.00;64.90;;;;;;5101289;28;19924;-73
2022/05/12 08:36:40;;;;;;;;;;;21.70;65.60;;;;;;5100194;28;19912;-74
2022/05/12 08:39:06;;;;;;;;;;;22.20;63.80;;;;;;5108480;28;20353;-73
2022/05/12 08:41:43;;;;;;;;;;;22.60;63.70;;;;;;5093004;28;20373;-74
2022/05/12 08:44:21;;;;;;;;;;;22.70;62.70;;;;;;5105326;28;20427;-73
2022/05/12 08:46:53;;;;;;;;;;;22.70;62.50;;;;;;5098841;28;19934;-76
2022/05/12 08:49:20;;;;;;;;;;;23.00;62.90;;;;;;5100629;28;19919;-73
2022/05/12 08:51:48;;;;;;;;;;;23.20;61.60;;;;;;5101956;28;19912;-76
2022/05/12 08:54:17;;;;;;;;;;;23.40;61.00;;;;;;5101462;28;19912;-75
2022/05/12 08:56:43;;;;;;;;;;;23.80;60.80;;;;;;5099463;28;20259;-74
2022/05/12 08:59:09;;;;;;;;;;;24.50;61.00;;;;;;5099327;28;19907;-75
2022/05/12 09:01:53;;;;;;;;;;;25.00;59.40;;;;;;5098654;28;19954;-75
2022/05/12 09:04:30;;;;;;;;;;;24.70;58.00;;;;;;5100878;28;20063;-75
2022/05/12 09:06:58;;;;;;;;;;;23.90;58.20;;;;;;5098757;28;19942;-75
2022/05/12 09:09:42;;;;;;;;;;;23.20;59.40;;;;;;5098855;28;19971;-74
2022/05/12 09:12:11;;;;;;;;;;;22.70;59.60;;;;;;5079461;28;19916;-75
2022/05/12 09:14:42;;;;;;;;;;;22.10;59.70;;;;;;5099611;28;20270;-74
2022/05/12 09:17:10;;;;;;;;;;;21.50;60.00;;;;;;5100804;28;20117;-73
2022/05/12 09:19:36;;;;;;;;;;;21.00;60.50;;;;;;5097827;28;19912;-74
2022/05/12 09:22:01;;;;;;;;;;;20.70;60.30;;;;;;5099816;28;19943;-72
2022/05/12 09:24:27;;;;;;;;;;;20.40;60.70;;;;;;5109906;28;19916;-74
2022/05/12 09:27:13;;;;;;;;;;;20.40;60.50;;;;;;5109593;28;19916;-75
2022/05/12 09:29:49;;;;;;;;;;;20.30;60.30;;;;;;5109816;28;20369;-75
2022/05/12 09:32:19;;;;;;;;;;;20.20;59.80;;;;;;5106953;28;19912;-74
2022/05/12 09:34:46;;;;;;;;;;;20.50;60.40;;;;;;5102658;28;20235;-74
2022/05/12 09:37:26;;;;;;;;;;;20.80;59.90;;;;;;5100338;28;19912;-75
2022/05/12 09:39:53;;;;;;;;;;;20.70;59.20;;;;;;5098052;28;19918;-75
2022/05/12 09:42:28;;;;;;;;;;;20.50;59.40;;;;;;5098027;28;20703;-74
2022/05/12 09:45:01;;;;;;;;;;;20.50;59.10;;;;;;5095209;28;19908;-74
2022/05/12 09:47:28;;;;;;;;;;;20.70;59.40;;;;;;5097416;28;19928;-75
2022/05/12 09:50:21;;;;;;;;;;;21.30;59.40;;;;;;5080426;28;19926;-73
2022/05/12 09:52:57;;;;;;;;;;;22.20;58.90;;;;;;5104659;28;19908;-74
2022/05/12 09:55:30;;;;;;;;;;;23.10;58.10;;;;;;5109907;28;19911;-75
2022/05/12 09:57:57;;;;;;;;;;;23.90;57.60;;;;;;5109599;28;19912;-75
2022/05/12 10:00:34;;;;;;;;;;;24.60;56.70;;;;;;5109890;28;19912;-76
2022/05/12 10:09:10;;;;;;;;;;;25.60;53.50;;;;;;5109454;28;19918;-74
2022/05/12 10:11:39;;;;;;;;;;;25.60;54.10;;;;;;5109151;28;19911;-75
2022/05/12 10:14:05;;;;;;;;;;;25.90;53.50;;;;;;5109734;28;19908;-74
2022/05/12 10:16:31;;;;;;;;;;;26.00;52.10;;;;;;5111098;28;19916;-74
2022/05/12 10:18:59;;;;;;;;;;;25.70;52.60;;;;;;5110159;28;19930;-74
2022/05/12 10:21:28;;;;;;;;;;;25.10;52.90;;;;;;5109772;28;19908;-73
2022/05/12 10:23:56;;;;;;;;;;;24.60;51.90;;;;;;5108944;28;20500;-70
2022/05/12 10:26:48;;;;;;;;;;;24.00;52.00;;;;;;5108777;28;19908;-70
2022/05/12 10:29:34;;;;;;;;;;;23.40;52.40;;;;;;5088422;28;20011;-73
2022/05/12 10:32:18;;;;;;;;;;;22.80;52.80;;;;;;5108833;28;19928;-70
2022/05/12 10:34:44;;;;;;;;;;;22.80;53.80;;;;;;5108711;28;19908;-73
2022/05/12 10:37:18;;;;;;;;;;;23.00;53.50;;;;;;5090277;28;20311;-72
2022/05/12 10:40:02;;;;;;;;;;;23.70;53.80;;;;;;5109181;28;19915;-74
2022/05/12 10:42:37;;;;;;;;;;;24.00;53.60;;;;;;5109228;28;20364;-76
2022/05/12 10:45:26;;;;;;;;;;;24.60;53.60;;;;;;5108946;28;19960;-74
2022/05/12 10:48:10;;;;;;;;;;;24.90;52.10;;;;;;5103028;28;20070;-74
2022/05/12 10:50:35;;;;;;;;;;;24.40;50.70;;;;;;5101013;28;19951;-74
2022/05/12 10:53:36;;;;;;;;;;;23.70;51.00;;;;;;5099791;28;20389;-75
2022/05/12 10:56:14;;;;;;;;;;;23.10;51.50;;;;;;5042850;28;19948;-76
2022/05/12 10:58:51;;;;;;;;;;;22.30;52.00;;;;;;5092050;28;19934;-75
2022/05/12 11:01:35;;;;;;;;;;;21.70;52.30;;;;;;5080865;28;19908;-73
2022/05/12 11:04:04;;;;;;;;;;;21.10;52.70;;;;;;5096479;28;19910;-74
2022/05/12 11:06:35;;;;;;;;;;;20.70;53.30;;;;;;5093671;28;20006;-75
2022/05/12 11:09:07;;;;;;;;;;;20.30;53.60;;;;;;5098949;28;19912;-73
2022/05/12 11:11:36;;;;;;;;;;;20.00;53.70;;;;;;5092453;28;19953;-74
2022/05/12 11:14:12;;;;;;;;;;;19.70;53.80;;;;;;5104459;28;19912;-74
2022/05/12 11:17:13;;;;;;;;;;;19.50;54.20;;;;;;5108589;28;19912;-74
2022/05/12 11:19:42;;;;;;;;;;;19.50;55.00;;;;;;5049228;28;20350;-73
2022/05/12 11:22:13;;;;;;;;;;;19.90;55.20;;;;;;5100939;28;19935;-75
2022/05/12 11:24:56;;;;;;;;;;;20.20;55.20;;;;;;5109657;28;19915;-78
2022/05/12 11:27:46;;;;;;;;;;;20.60;54.70;;;;;;5109317;28;19981;-75
2022/05/12 11:30:24;;;;;;;;;;;20.80;54.40;;;;;;5085661;28;20342;-74
2022/05/12 11:33:02;;;;;;;;;;;20.70;53.90;;;;;;5109090;28;20268;-74
2022/05/12 11:35:38;;;;;;;;;;;20.50;54.00;;;;;;5091102;28;20373;-74
2022/05/12 11:38:05;;;;;;;;;;;20.40;54.10;;;;;;5090946;28;20246;-75
2022/05/12 11:40:48;;;;;;;;;;;20.30;54.60;;;;;;5109540;28;19965;-75
2022/05/12 11:46:16;;;;;;;;;;;21.40;55.00;;;;;;5110055;28;19915;-75
2022/05/12 11:48:48;;;;;;;;;;;22.20;54.30;;;;;;5109438;28;19920;-75
2022/05/12 11:51:17;;;;;;;;;;;22.60;53.40;;;;;;5109908;28;19915;-77
2022/05/12 11:53:45;;;;;;;;;;;22.70;52.80;;;;;;5110710;28;19917;-73
2022/05/12 11:56:11;;;;;;;;;;;22.60;52.40;;;;;;5090515;28;20009;-74
2022/05/12 11:58:42;;;;;;;;;;;22.30;52.40;;;;;;5108863;28;19954;-74
2022/05/12 12:01:11;;;;;;;;;;;22.20;52.80;;;;;;5091154;28;19912;-75
2022/05/12 12:03:46;;;;;;;;;;;22.10;52.90;;;;;;5112583;28;19908;-75
2022/05/12 12:06:31;;;;;;;;;;;21.80;52.50;;;;;;5112900;28;19937;-77
2022/05/12 12:09:17;;;;;;;;;;;21.60;52.30;;;;;;5112490;28;19912;-77
2022/05/12 12:11:43;;;;;;;;;;;21.20;52.40;;;;;;5112683;28;19961;-76
2022/05/12 12:14:09;;;;;;;;;;;21.10;52.90;;;;;;5112933;28;19931;-76
2022/05/12 12:16:54;;;;;;;;;;;21.00;53.20;;;;;;5094583;28;19912;-75
2022/05/12 12:19:38;;;;;;;;;;;21.10;53.60;;;;;;5112419;28;20425;-75
2022/05/12 12:22:33;;;;;;;;;;;21.10;53.50;;;;;;5094347;28;19926;-75
2022/05/12 12:25:17;;;;;;;;;;;21.10;53.20;;;;;;5085528;28;20327;-77
2022/05/12 12:27:52;;;;;;;;;;;21.00;53.20;;;;;;5096442;28;19964;-74
2022/05/12 12:30:38;;;;;;;;;;;21.00;53.70;;;;;;5109798;28;19912;-76
2022/05/12 12:33:13;;;;;;;;;;;21.00;53.50;;;;;;5106613;28;19958;-75
2022/05/12 12:36:08;;;;;;;;;;;21.10;53.70;;;;;;5075571;28;19909;-74
2022/05/12 12:38:49;;;;;;;;;;;21.20;54.00;;;;;;5075253;28;19915;-76
2022/05/12 12:41:29;;;;;;;;;;;21.60;53.90;;;;;;5094070;28;19909;-74
2022/05/12 12:44:09;;;;;;;;;;;21.80;53.50;;;;;;5104026;28;19908;-76
2022/05/12 12:46:58;;;;;;;;;;;22.00;53.10;;;;;;5099359;28;19923;-75
2022/05/12 12:49:31;;;;;;;;;;;22.10;52.90;;;;;;5090127;28;19920;-76
2022/05/12 12:52:03;;;;;;;;;;;22.00;52.30;;;;;;5100583;28;20366;-76
2022/05/12 12:57:16;;;;;;;;;;;21.90;52.70;;;;;;5102889;28;20384;-73
2022/05/12 13:00:06;;;;;;;;;;;22.10;53.30;;;;;;5100543;28;19965;-75
2022/05/12 13:02:35;;;;;;;;;;;22.40;53.50;;;;;;5100545;28;19908;-75
2022/05/12 13:05:04;;;;;;;;;;;22.70;53.20;;;;;;5102993;28;20056;-77
2022/05/12 13:07:31;;;;;;;;;;;22.70;52.40;;;;;;5104785;28;19920;-76
2022/05/12 13:09:57;;;;;;;;;;;22.60;52.10;;;;;;5102249;28;19990;-76
2022/05/12 13:12:25;;;;;;;;;;;22.50;52.50;;;;;;5104685;28;19908;-77
2022/05/12 13:14:51;;;;;;;;;;;22.30;52.20;;;;;;5098514;28;19995;-75
2022/05/12 13:17:18;;;;;;;;;;;21.90;52.60;;;;;;5085634;28;20373;-75
2022/05/12 13:19:44;;;;;;;;;;;21.60;52.70;;;;;;5088283;28;19985;-76
2022/05/12 13:22:18;;;;;;;;;;;21.30;53.20;;;;;;5100767;28;20369;-76
2022/05/12 13:24:44;;;;;;;;;;;21.00;53.70;;;;;;5104351;28;19922;-77
2022/05/12 13:27:11;;;;;;;;;;;20.90;54.00;;;;;;5083088;28;20364;-75
2022/05/12 13:29:38;;;;;;;;;;;20.90;54.80;;;;;;5095638;28;20639;-75
2022/05/12 13:32:06;;;;;;;;;;;21.00;54.70;;;;;;5092685;28;19953;-78
2022/05/12 13:34:33;;;;;;;;;;;21.20;54.80;;;;;;5091763;28;19916;-74
2022/05/12 13:37:17;;;;;;;;;;;21.20;54.50;;;;;;5081086;28;19912;-76
2022/05/12 13:39:50;;;;;;;;;;;21.10;54.60;;;;;;5101614;28;20190;-65
2022/05/12 13:42:28;;;;;;;;;;;20.70;55.40;;;;;;5103415;28;20303;-65
2022/05/12 13:44:55;;;;;;;;;;;20.30;56.60;;;;;;5103112;28;19908;-75
2022/05/12 13:47:25;;;;;;;;;;;19.80;57.50;;;;;;5099230;28;19920;-74
2022/05/12 13:49:51;;;;;;;;;;;19.60;58.10;;;;;;5099356;28;19919;-76
2022/05/12 13:52:18;;;;;;;;;;;19.70;58.50;;;;;;5097247;28;19916;-75
2022/05/12 13:55:00;;;;;;;;;;;20.00;58.50;;;;;;5082992;28;19920;-75
2022/05/12 13:57:32;;;;;;;;;;;20.10;58.30;;;;;;5084491;28;19953;-76
2022/05/12 13:59:58;;;;;;;;;;;20.20;58.40;;;;;;5111561;28;20509;-72
2022/05/12 14:02:38;;;;;;;;;;;20.40;58.70;;;;;;5111423;28;19915;-74
2022/05/12 14:05:12;;;;;;;;;;;20.50;58.50;;;;;;5086251;28;19915;-76
2022/05/12 14:07:38;;;;;;;;;;;20.60;58.50;;;;;;5093122;28;20285;-73
2022/05/12 14:10:30;;;;;;;;;;;20.70;58.20;;;;;;5093870;28;19912;-73
2022/05/12 14:21:17;;;;;;;;;;;20.50;57.50;;;;;;5111465;28;19968;-76
2022/05/12 14:23:42;;;;;;;;;;;20.30;57.70;;;;;;5111855;28;19908;-76
2022/05/12 14:26:08;;;;;;;;;;;20.30;58.00;;;;;;5110705;28;20565;-75
2022/05/12 14:28:34;;;;;;;;;;;20.40;58.20;;;;;;5111571;28;19912;-75
2022/05/12 14:31:01;;;;;;;;;;;20.40;58.10;;;;;;5076467;28;20295;-76
2022/05/12 14:33:28;;;;;;;;;;;20.40;57.90;;;;;;5110970;28;19908;-73
2022/05/12 14:35:54;;;;;;;;;;;20.20;57.80;;;;;;5087352;28;20362;-75
2022/05/12 14:38:20;;;;;;;;;;;20.20;58.20;;;;;;5102676;28;19916;-75
2022/05/12 14:40:46;;;;;;;;;;;20.00;58.30;;;;;;5102584;28;19956;-74
2022/05/12 14:43:11;;;;;;;;;;;19.80;58.80;;;;;;5101167;28;19919;-73
2022/05/12 14:45:40;;;;;;;;;;;19.30;59.20;;;;;;5080348;28;19939;-72
2022/05/12 14:48:07;;;;;;;;;;;18.70;59.80;;;;;;5061445;28;20540;-75
2022/05/12 14:50:36;;;;;;;;;;;18.10;60.30;;;;;;5082840;28;19947;-77
2022/05/12 14:53:08;;;;;;;;;;;17.60;60.50;;;;;;5086401;28;19917;-75
2022/05/12 14:55:35;;;;;;;;;;;17.30;61.30;;;;;;5082193;28;19915;-74
2022/05/12 14:58:00;;;;;;;;;;;17.10;61.60;;;;;;5084855;28;19954;-76
2022/05/12 15:00:29;;;;;;;;;;;17.00;62.00;;;;;;5082823;28;19916;-76
2022/05/12 15:02:58;;;;;;;;;;;17.00;62.50;;;;;;5081992;28;19995;-77
2022/05/12 15:05:24;;;;;;;;;;;16.90;63.10;;;;;;5076899;28;19959;-76